sensor_id;sensor_type;location;lat;lon;timestamp;temperature;humidity
7155;DHT22;3619;53.784;10.440;2023-03-22T00:00:36;8.30;99.90
7155;DHT22;3619;53.784;10.440;2023-03-22T00:03:04;8.30;99.90
7155;DHT22;3619;53.784;10.440;2023-03-22T00:05:33;8.20;99.90
7155;DHT22;3619;53.784;10.440;2023-03-22T00:08:01;8.20;99.90
7155;DHT22;3619;53.784;10.440;2023-03-22T00:10:30;8.10;99.90
7155;DHT22;3619;53.784;10.440;2023-03-22T00:12:57;8.10;99.90
7155;DHT22;3619;53.784;10.440;2023-03-22T00:15:24;8.10;99.90
7155;DHT22;3619;53.784;10.440;2023-03-22T00:17:54;8.00;99.90
7155;DHT22;3619;53.784;10.440;2023-03-22T00:20:22;8.00;99.90
7155;DHT22;3619;53.784;10.440;2023-03-22T00:22:51;7.90;99.90
7155;DHT22;3619;53.784;10.440;2023-03-22T00:25:19;7.90;99.90
7155;DHT22;3619;53.784;10.440;2023-03-22T00:27:46;7.90;99.90
7155;DHT22;3619;53.784;10.440;2023-03-22T00:30:13;7.90;99.90
7155;DHT22;3619;53.784;10.440;2023-03-22T00:32:40;7.90;99.90
7155;DHT22;3619;53.784;10.440;2023-03-22T00:35:09;8.00;99.90
7155;DHT22;3619;53.784;10.440;2023-03-22T00:37:36;8.00;99.90
7155;DHT22;3619;53.784;10.440;2023-03-22T00:40:05;8.10;99.90
7155;DHT22;3619;53.784;10.440;2023-03-22T00:42:34;8.10;99.90
7155;DHT22;3619;53.784;10.440;2023-03-22T00:45:05;8.20;99.90
7155;DHT22;3619;53.784;10.440;2023-03-22T00:47:32;8.20;99.90
7155;DHT22;3619;53.784;10.440;2023-03-22T00:50:03;8.30;99.90
7155;DHT22;3619;53.784;10.440;2023-03-22T00:52:30;8.30;99.90
7155;DHT22;3619;53.784;10.440;2023-03-22T00:54:58;8.30;99.90
7155;DHT22;3619;53.784;10.440;2023-03-22T00:57:24;8.30;99.90
7155;DHT22;3619;53.784;10.440;2023-03-22T00:59:53;8.30;99.90
7155;DHT22;3619;53.784;10.440;2023-03-22T01:02:20;8.30;99.90
7155;DHT22;3619;53.784;10.440;2023-03-22T01:04:54;8.30;99.90
7155;DHT22;3619;53.784;10.440;2023-03-22T01:07:22;8.20;99.90
7155;DHT22;3619;53.784;10.440;2023-03-22T01:09:49;8.20;99.90
7155;DHT22;3619;53.784;10.440;2023-03-22T01:12:17;8.20;99.90
7155;DHT22;3619;53.784;10.440;2023-03-22T01:14:44;8.20;99.90
7155;DHT22;3619;53.784;10.440;2023-03-22T01:17:14;8.10;99.90
7155;DHT22;3619;53.784;10.440;2023-03-22T01:19:40;8.10;99.90
7155;DHT22;3619;53.784;10.440;2023-03-22T01:22:07;8.10;99.90
7155;DHT22;3619;53.784;10.440;2023-03-22T01:24:34;8.20;99.90
7155;DHT22;3619;53.784;10.440;2023-03-22T01:27:01;8.20;99.90
7155;DHT22;3619;53.784;10.440;2023-03-22T01:29:28;8.20;99.90
7155;DHT22;3619;53.784;10.440;2023-03-22T01:31:55;8.20;99.90
7155;DHT22;3619;53.784;10.440;2023-03-22T01:34:28;8.10;99.90
7155;DHT22;3619;53.784;10.440;2023-03-22T01:36:55;8.10;99.90
7155;DHT22;3619;53.784;10.440;2023-03-22T01:39:22;8.00;99.90
7155;DHT22;3619;53.784;10.440;2023-03-22T01:41:50;8.00;99.90
7155;DHT22;3619;53.784;10.440;2023-03-22T01:44:18;8.00;99.90
7155;DHT22;3619;53.784;10.440;2023-03-22T01:46:47;8.00;99.90
7155;DHT22;3619;53.784;10.440;2023-03-22T01:49:16;8.00;99.90
7155;DHT22;3619;53.784;10.440;2023-03-22T01:51:51;8.10;99.90
7155;DHT22;3619;53.784;10.440;2023-03-22T01:54:24;8.10;99.90
7155;DHT22;3619;53.784;10.440;2023-03-22T01:56:55;8.20;99.90
7155;DHT22;3619;53.784;10.440;2023-03-22T01:59:23;8.20;99.90
7155;DHT22;3619;53.784;10.440;2023-03-22T02:01:50;8.20;99.90
7155;DHT22;3619;53.784;10.440;2023-03-22T02:04:18;8.20;99.90
7155;DHT22;3619;53.784;10.440;2023-03-22T02:06:51;8.30;99.90
7155;DHT22;3619;53.784;10.440;2023-03-22T02:09:20;8.30;99.90
7155;DHT22;3619;53.784;10.440;2023-03-22T02:11:50;8.20;99.90
7155;DHT22;3619;53.784;10.440;2023-03-22T02:14:40;8.30;99.90
7155;DHT22;3619;53.784;10.440;2023-03-22T02:17:27;8.30;99.90
7155;DHT22;3619;53.784;10.440;2023-03-22T02:20:37;8.30;99.90
7155;DHT22;3619;53.784;10.440;2023-03-22T02:23:34;8.30;99.90
7155;DHT22;3619;53.784;10.440;2023-03-22T02:29:23;8.40;99.90
7155;DHT22;3619;53.784;10.440;2023-03-22T02:35:19;8.40;99.90
7155;DHT22;3619;53.784;10.440;2023-03-22T02:38:19;8.50;99.90
7155;DHT22;3619;53.784;10.440;2023-03-22T02:40:51;8.50;99.90
7155;DHT22;3619;53.784;10.440;2023-03-22T02:43:25;8.50;99.90
7155;DHT22;3619;53.784;10.440;2023-03-22T02:46:01;8.50;99.90
7155;DHT22;3619;53.784;10.440;2023-03-22T02:48:33;8.50;99.90
7155;DHT22;3619;53.784;10.440;2023-03-22T02:51:05;8.50;99.90
7155;DHT22;3619;53.784;10.440;2023-03-22T02:53:38;8.50;99.90
7155;DHT22;3619;53.784;10.440;2023-03-22T02:56:11;8.50;99.90
7155;DHT22;3619;53.784;10.440;2023-03-22T02:58:41;8.50;99.90
7155;DHT22;3619;53.784;10.440;2023-03-22T03:01:15;8.50;99.90
7155;DHT22;3619;53.784;10.440;2023-03-22T03:03:45;8.40;99.90
7155;DHT22;3619;53.784;10.440;2023-03-22T03:06:17;8.40;99.90
7155;DHT22;3619;53.784;10.440;2023-03-22T03:08:48;8.40;99.90
7155;DHT22;3619;53.784;10.440;2023-03-22T03:11:18;8.30;99.90
7155;DHT22;3619;53.784;10.440;2023-03-22T03:13:45;8.30;99.90
7155;DHT22;3619;53.784;10.440;2023-03-22T03:16:20;8.40;99.90
7155;DHT22;3619;53.784;10.440;2023-03-22T03:18:51;8.30;99.90
7155;DHT22;3619;53.784;10.440;2023-03-22T03:21:26;8.30;99.90
7155;DHT22;3619;53.784;10.440;2023-03-22T03:24:04;8.40;99.90
7155;DHT22;3619;53.784;10.440;2023-03-22T03:26:40;8.40;99.90
7155;DHT22;3619;53.784;10.440;2023-03-22T03:29:13;8.50;99.90
7155;DHT22;3619;53.784;10.440;2023-03-22T03:31:45;8.50;99.90
7155;DHT22;3619;53.784;10.440;2023-03-22T03:34:19;8.50;99.90
7155;DHT22;3619;53.784;10.440;2023-03-22T03:36:52;8.50;99.90
7155;DHT22;3619;53.784;10.440;2023-03-22T03:39:20;8.50;99.90
7155;DHT22;3619;53.784;10.440;2023-03-22T03:41:52;8.50;99.90
7155;DHT22;3619;53.784;10.440;2023-03-22T03:44:22;8.50;99.90
7155;DHT22;3619;53.784;10.440;2023-03-22T03:46:50;8.50;99.90
7155;DHT22;3619;53.784;10.440;2023-03-22T03:49:22;8.50;99.90
7155;DHT22;3619;53.784;10.440;2023-03-22T03:51:51;8.50;99.90
7155;DHT22;3619;53.784;10.440;2023-03-22T03:54:19;8.60;99.90
7155;DHT22;3619;53.784;10.440;2023-03-22T03:56:46;8.60;99.90
7155;DHT22;3619;53.784;10.440;2023-03-22T03:59:14;8.60;99.90
7155;DHT22;3619;53.784;10.440;2023-03-22T04:01:42;8.60;99.90
7155;DHT22;3619;53.784;10.440;2023-03-22T04:04:15;8.60;99.90
7155;DHT22;3619;53.784;10.440;2023-03-22T04:06:42;8.60;99.90
7155;DHT22;3619;53.784;10.440;2023-03-22T04:09:09;8.60;99.90
7155;DHT22;3619;53.784;10.440;2023-03-22T04:11:36;8.60;99.90
7155;DHT22;3619;53.784;10.440;2023-03-22T04:14:03;8.70;99.90
7155;DHT22;3619;53.784;10.440;2023-03-22T04:16:31;8.70;99.90
7155;DHT22;3619;53.784;10.440;2023-03-22T04:18:58;8.70;99.90
7155;DHT22;3619;53.784;10.440;2023-03-22T04:21:25;8.70;99.90
7155;DHT22;3619;53.784;10.440;2023-03-22T04:23:51;8.70;99.90
7155;DHT22;3619;53.784;10.440;2023-03-22T04:26:20;8.70;99.90
7155;DHT22;3619;53.784;10.440;2023-03-22T04:28:47;8.70;99.90
7155;DHT22;3619;53.784;10.440;2023-03-22T04:31:14;8.70;99.90
7155;DHT22;3619;53.784;10.440;2023-03-22T04:33:44;8.70;99.90
7155;DHT22;3619;53.784;10.440;2023-03-22T04:36:11;8.70;99.90
7155;DHT22;3619;53.784;10.440;2023-03-22T04:38:40;8.70;99.90
7155;DHT22;3619;53.784;10.440;2023-03-22T04:41:08;8.70;99.90
7155;DHT22;3619;53.784;10.440;2023-03-22T04:43:34;8.60;99.90
7155;DHT22;3619;53.784;10.440;2023-03-22T04:46:04;8.60;99.90
7155;DHT22;3619;53.784;10.440;2023-03-22T04:48:34;8.60;99.90
7155;DHT22;3619;53.784;10.440;2023-03-22T04:51:03;8.60;99.90
7155;DHT22;3619;53.784;10.440;2023-03-22T04:53:30;8.60;99.90
7155;DHT22;3619;53.784;10.440;2023-03-22T04:55:57;8.60;99.90
7155;DHT22;3619;53.784;10.440;2023-03-22T04:58:24;8.60;99.90
7155;DHT22;3619;53.784;10.440;2023-03-22T05:00:52;8.60;99.90
7155;DHT22;3619;53.784;10.440;2023-03-22T05:03:19;8.60;99.90
7155;DHT22;3619;53.784;10.440;2023-03-22T05:05:50;8.60;99.90
7155;DHT22;3619;53.784;10.440;2023-03-22T05:08:19;8.60;99.90
7155;DHT22;3619;53.784;10.440;2023-03-22T05:10:46;8.60;99.90
7155;DHT22;3619;53.784;10.440;2023-03-22T05:13:13;8.60;99.90
7155;DHT22;3619;53.784;10.440;2023-03-22T05:15:40;8.60;99.90
7155;DHT22;3619;53.784;10.440;2023-03-22T05:18:07;8.60;99.90
7155;DHT22;3619;53.784;10.440;2023-03-22T05:20:34;8.60;99.90
7155;DHT22;3619;53.784;10.440;2023-03-22T05:23:01;8.60;99.90
7155;DHT22;3619;53.784;10.440;2023-03-22T05:25:32;8.60;99.90
7155;DHT22;3619;53.784;10.440;2023-03-22T05:27:59;8.60;99.90
7155;DHT22;3619;53.784;10.440;2023-03-22T05:30:26;8.60;99.90
7155;DHT22;3619;53.784;10.440;2023-03-22T05:32:56;8.60;99.90
7155;DHT22;3619;53.784;10.440;2023-03-22T05:35:25;8.60;99.90
7155;DHT22;3619;53.784;10.440;2023-03-22T05:37:52;8.60;99.90
7155;DHT22;3619;53.784;10.440;2023-03-22T05:40:18;8.70;99.90
7155;DHT22;3619;53.784;10.440;2023-03-22T05:42:47;8.70;99.90
7155;DHT22;3619;53.784;10.440;2023-03-22T05:45:14;8.70;99.90
7155;DHT22;3619;53.784;10.440;2023-03-22T05:47:41;8.80;99.90
7155;DHT22;3619;53.784;10.440;2023-03-22T05:50:09;8.80;99.90
7155;DHT22;3619;53.784;10.440;2023-03-22T05:52:40;8.90;99.90
7155;DHT22;3619;53.784;10.440;2023-03-22T05:55:10;8.90;99.90
7155;DHT22;3619;53.784;10.440;2023-03-22T05:57:37;8.90;99.90
7155;DHT22;3619;53.784;10.440;2023-03-22T06:00:07;9.00;99.90
7155;DHT22;3619;53.784;10.440;2023-03-22T06:02:39;9.00;99.90
7155;DHT22;3619;53.784;10.440;2023-03-22T06:05:07;9.00;99.90
7155;DHT22;3619;53.784;10.440;2023-03-22T06:07:35;9.00;99.90
7155;DHT22;3619;53.784;10.440;2023-03-22T06:10:03;9.00;99.90
7155;DHT22;3619;53.784;10.440;2023-03-22T06:12:30;9.10;99.90
7155;DHT22;3619;53.784;10.440;2023-03-22T06:14:57;9.10;99.90
7155;DHT22;3619;53.784;10.440;2023-03-22T06:17:27;9.10;99.90
7155;DHT22;3619;53.784;10.440;2023-03-22T06:19:54;9.10;99.90
7155;DHT22;3619;53.784;10.440;2023-03-22T06:22:21;9.10;99.90
7155;DHT22;3619;53.784;10.440;2023-03-22T06:24:48;9.20;99.90
7155;DHT22;3619;53.784;10.440;2023-03-22T06:27:15;9.30;99.90
7155;DHT22;3619;53.784;10.440;2023-03-22T06:29:43;9.30;99.90
7155;DHT22;3619;53.784;10.440;2023-03-22T06:32:15;9.40;99.90
7155;DHT22;3619;53.784;10.440;2023-03-22T06:34:43;9.50;99.90
7155;DHT22;3619;53.784;10.440;2023-03-22T06:37:11;9.50;99.90
7155;DHT22;3619;53.784;10.440;2023-03-22T06:39:40;9.50;99.90
7155;DHT22;3619;53.784;10.440;2023-03-22T06:42:06;9.60;99.90
7155;DHT22;3619;53.784;10.440;2023-03-22T06:44:33;9.60;99.90
7155;DHT22;3619;53.784;10.440;2023-03-22T06:47:01;9.70;99.90
7155;DHT22;3619;53.784;10.440;2023-03-22T06:49:28;9.70;99.90
7155;DHT22;3619;53.784;10.440;2023-03-22T06:51:58;9.80;99.90
7155;DHT22;3619;53.784;10.440;2023-03-22T06:54:25;9.80;99.90
7155;DHT22;3619;53.784;10.440;2023-03-22T06:56:53;9.90;99.90
7155;DHT22;3619;53.784;10.440;2023-03-22T06:59:20;9.90;99.90
7155;DHT22;3619;53.784;10.440;2023-03-22T07:01:47;10.00;99.90
7155;DHT22;3619;53.784;10.440;2023-03-22T07:04:17;10.00;99.90
7155;DHT22;3619;53.784;10.440;2023-03-22T07:06:44;10.00;99.90
7155;DHT22;3619;53.784;10.440;2023-03-22T07:09:12;10.00;99.90
7155;DHT22;3619;53.784;10.440;2023-03-22T07:11:39;10.00;99.90
7155;DHT22;3619;53.784;10.440;2023-03-22T07:14:06;10.00;99.90
7155;DHT22;3619;53.784;10.440;2023-03-22T07:16:32;10.00;99.90
7155;DHT22;3619;53.784;10.440;2023-03-22T07:19:01;10.00;99.90
7155;DHT22;3619;53.784;10.440;2023-03-22T07:21:28;10.00;99.90
7155;DHT22;3619;53.784;10.440;2023-03-22T07:23:54;10.00;99.90
7155;DHT22;3619;53.784;10.440;2023-03-22T07:26:24;10.10;99.90
7155;DHT22;3619;53.784;10.440;2023-03-22T07:28:51;10.10;99.90
7155;DHT22;3619;53.784;10.440;2023-03-22T07:31:18;10.10;99.90
7155;DHT22;3619;53.784;10.440;2023-03-22T07:33:45;10.10;99.90
7155;DHT22;3619;53.784;10.440;2023-03-22T07:36:12;10.10;99.90
7155;DHT22;3619;53.784;10.440;2023-03-22T07:38:40;10.10;99.90
7155;DHT22;3619;53.784;10.440;2023-03-22T07:41:06;10.10;99.90
7155;DHT22;3619;53.784;10.440;2023-03-22T07:43:35;10.10;99.90
7155;DHT22;3619;53.784;10.440;2023-03-22T07:46:01;10.10;99.90
7155;DHT22;3619;53.784;10.440;2023-03-22T07:48:28;10.20;99.90
7155;DHT22;3619;53.784;10.440;2023-03-22T07:50:56;10.30;99.90
7155;DHT22;3619;53.784;10.440;2023-03-22T07:53:22;10.40;99.90
7155;DHT22;3619;53.784;10.440;2023-03-22T07:55:50;10.40;99.90
7155;DHT22;3619;53.784;10.440;2023-03-22T07:58:16;10.40;99.90
7155;DHT22;3619;53.784;10.440;2023-03-22T08:00:46;10.50;99.90
7155;DHT22;3619;53.784;10.440;2023-03-22T08:03:14;10.60;99.90
7155;DHT22;3619;53.784;10.440;2023-03-22T08:05:41;10.60;99.90
7155;DHT22;3619;53.784;10.440;2023-03-22T08:08:10;10.70;99.90
7155;DHT22;3619;53.784;10.440;2023-03-22T08:10:41;10.70;99.90
7155;DHT22;3619;53.784;10.440;2023-03-22T08:13:14;10.80;99.90
7155;DHT22;3619;53.784;10.440;2023-03-22T08:15:44;10.90;99.90
7155;DHT22;3619;53.784;10.440;2023-03-22T08:18:11;10.90;99.90
7155;DHT22;3619;53.784;10.440;2023-03-22T08:20:38;10.90;99.90
7155;DHT22;3619;53.784;10.440;2023-03-22T08:23:06;10.90;99.90
7155;DHT22;3619;53.784;10.440;2023-03-22T08:25:37;10.80;99.90
7155;DHT22;3619;53.784;10.440;2023-03-22T08:28:05;10.80;99.90
7155;DHT22;3619;53.784;10.440;2023-03-22T08:30:32;10.80;99.90
7155;DHT22;3619;53.784;10.440;2023-03-22T08:33:00;10.70;99.90
7155;DHT22;3619;53.784;10.440;2023-03-22T08:35:27;10.70;99.90
7155;DHT22;3619;53.784;10.440;2023-03-22T08:37:54;10.80;99.90
7155;DHT22;3619;53.784;10.440;2023-03-22T08:40:29;10.80;99.90
7155;DHT22;3619;53.784;10.440;2023-03-22T08:42:59;10.80;99.90
7155;DHT22;3619;53.784;10.440;2023-03-22T08:45:26;10.90;99.90
7155;DHT22;3619;53.784;10.440;2023-03-22T08:47:56;11.10;99.90
7155;DHT22;3619;53.784;10.440;2023-03-22T08:50:25;11.20;99.90
7155;DHT22;3619;53.784;10.440;2023-03-22T08:52:52;11.20;99.90
7155;DHT22;3619;53.784;10.440;2023-03-22T08:55:20;11.30;99.90
7155;DHT22;3619;53.784;10.440;2023-03-22T08:57:48;11.30;99.90
7155;DHT22;3619;53.784;10.440;2023-03-22T09:00:17;11.60;99.90
7155;DHT22;3619;53.784;10.440;2023-03-22T09:02:44;11.90;99.90
7155;DHT22;3619;53.784;10.440;2023-03-22T09:05:14;12.30;99.90
7155;DHT22;3619;53.784;10.440;2023-03-22T09:07:44;12.50;99.90
7155;DHT22;3619;53.784;10.440;2023-03-22T09:10:11;12.50;99.90
7155;DHT22;3619;53.784;10.440;2023-03-22T09:12:38;12.60;99.90
7155;DHT22;3619;53.784;10.440;2023-03-22T09:15:07;12.60;99.90
7155;DHT22;3619;53.784;10.440;2023-03-22T09:17:34;12.50;99.90
7155;DHT22;3619;53.784;10.440;2023-03-22T09:20:01;12.60;99.90
7155;DHT22;3619;53.784;10.440;2023-03-22T09:22:29;12.70;99.90
7155;DHT22;3619;53.784;10.440;2023-03-22T09:24:58;12.60;99.90
7155;DHT22;3619;53.784;10.440;2023-03-22T09:27:26;12.60;99.90
7155;DHT22;3619;53.784;10.440;2023-03-22T09:29:52;12.60;99.90
7155;DHT22;3619;53.784;10.440;2023-03-22T09:32:19;12.60;99.90
7155;DHT22;3619;53.784;10.440;2023-03-22T09:34:47;12.60;99.90
7155;DHT22;3619;53.784;10.440;2023-03-22T09:37:14;12.70;99.90
7155;DHT22;3619;53.784;10.440;2023-03-22T09:39:41;12.80;99.90
7155;DHT22;3619;53.784;10.440;2023-03-22T09:42:22;13.00;99.90
7155;DHT22;3619;53.784;10.440;2023-03-22T09:44:53;13.00;99.90
7155;DHT22;3619;53.784;10.440;2023-03-22T09:47:25;13.00;99.90
7155;DHT22;3619;53.784;10.440;2023-03-22T09:50:12;13.00;99.90
7155;DHT22;3619;53.784;10.440;2023-03-22T09:52:39;13.10;99.90
7155;DHT22;3619;53.784;10.440;2023-03-22T09:55:16;13.20;99.90
7155;DHT22;3619;53.784;10.440;2023-03-22T09:58:00;13.30;99.90
7155;DHT22;3619;53.784;10.440;2023-03-22T10:00:38;13.40;99.90
7155;DHT22;3619;53.784;10.440;2023-03-22T10:03:15;13.30;99.90
7155;DHT22;3619;53.784;10.440;2023-03-22T10:05:47;13.10;99.90
7155;DHT22;3619;53.784;10.440;2023-03-22T10:08:30;13.10;99.90
7155;DHT22;3619;53.784;10.440;2023-03-22T10:11:02;13.00;99.90
7155;DHT22;3619;53.784;10.440;2023-03-22T10:14:00;13.10;99.90
7155;DHT22;3619;53.784;10.440;2023-03-22T10:16:33;13.20;99.90
7155;DHT22;3619;53.784;10.440;2023-03-22T10:19:20;13.30;99.90
7155;DHT22;3619;53.784;10.440;2023-03-22T10:21:52;13.40;99.90
7155;DHT22;3619;53.784;10.440;2023-03-22T10:24:24;13.60;99.90
7155;DHT22;3619;53.784;10.440;2023-03-22T10:26:57;13.60;99.90
7155;DHT22;3619;53.784;10.440;2023-03-22T10:29:33;13.60;99.90
7155;DHT22;3619;53.784;10.440;2023-03-22T10:32:13;13.60;99.90
7155;DHT22;3619;53.784;10.440;2023-03-22T10:34:41;13.60;99.90
7155;DHT22;3619;53.784;10.440;2023-03-22T10:37:14;13.70;99.90
7155;DHT22;3619;53.784;10.440;2023-03-22T10:39:45;13.60;99.90
7155;DHT22;3619;53.784;10.440;2023-03-22T10:42:18;13.60;99.90
7155;DHT22;3619;53.784;10.440;2023-03-22T10:44:52;13.50;99.90
7155;DHT22;3619;53.784;10.440;2023-03-22T10:47:28;13.40;99.90
7155;DHT22;3619;53.784;10.440;2023-03-22T10:49:56;13.50;99.90
7155;DHT22;3619;53.784;10.440;2023-03-22T10:52:37;13.50;99.90
7155;DHT22;3619;53.784;10.440;2023-03-22T10:55:11;13.60;99.90
7155;DHT22;3619;53.784;10.440;2023-03-22T10:57:39;13.60;99.90
7155;DHT22;3619;53.784;10.440;2023-03-22T11:00:15;13.60;99.90
7155;DHT22;3619;53.784;10.440;2023-03-22T11:02:45;13.60;99.90
7155;DHT22;3619;53.784;10.440;2023-03-22T11:05:22;13.60;99.90
7155;DHT22;3619;53.784;10.440;2023-03-22T11:07:49;13.70;99.90
7155;DHT22;3619;53.784;10.440;2023-03-22T11:10:23;13.80;99.90
7155;DHT22;3619;53.784;10.440;2023-03-22T11:12:54;13.80;99.90
7155;DHT22;3619;53.784;10.440;2023-03-22T11:15:26;13.70;99.90
7155;DHT22;3619;53.784;10.440;2023-03-22T11:18:00;13.60;99.90
7155;DHT22;3619;53.784;10.440;2023-03-22T11:20:31;13.70;99.90
7155;DHT22;3619;53.784;10.440;2023-03-22T11:23:00;13.80;99.90
7155;DHT22;3619;53.784;10.440;2023-03-22T11:25:31;13.90;99.90
7155;DHT22;3619;53.784;10.440;2023-03-22T11:28:07;14.10;99.90
7155;DHT22;3619;53.784;10.440;2023-03-22T11:30:58;14.20;99.90
7155;DHT22;3619;53.784;10.440;2023-03-22T11:33:31;14.30;99.90
7155;DHT22;3619;53.784;10.440;2023-03-22T11:36:00;14.30;99.90
7155;DHT22;3619;53.784;10.440;2023-03-22T11:38:34;14.10;99.90
7155;DHT22;3619;53.784;10.440;2023-03-22T11:41:02;14.20;99.90
7155;DHT22;3619;53.784;10.440;2023-03-22T11:43:35;14.00;99.90
7155;DHT22;3619;53.784;10.440;2023-03-22T11:46:08;13.90;99.90
7155;DHT22;3619;53.784;10.440;2023-03-22T11:48:38;14.00;99.90
7155;DHT22;3619;53.784;10.440;2023-03-22T11:51:08;14.00;99.90
7155;DHT22;3619;53.784;10.440;2023-03-22T11:53:38;13.90;99.90
7155;DHT22;3619;53.784;10.440;2023-03-22T11:56:09;13.80;99.90
7155;DHT22;3619;53.784;10.440;2023-03-22T11:58:54;13.80;99.90
7155;DHT22;3619;53.784;10.440;2023-03-22T12:01:33;13.80;99.90
7155;DHT22;3619;53.784;10.440;2023-03-22T12:04:05;13.80;99.90
7155;DHT22;3619;53.784;10.440;2023-03-22T12:06:39;13.70;99.90
7155;DHT22;3619;53.784;10.440;2023-03-22T12:09:24;13.70;99.90
7155;DHT22;3619;53.784;10.440;2023-03-22T12:11:54;13.80;99.90
7155;DHT22;3619;53.784;10.440;2023-03-22T12:14:24;13.80;99.90
7155;DHT22;3619;53.784;10.440;2023-03-22T12:16:56;13.80;99.90
7155;DHT22;3619;53.784;10.440;2023-03-22T12:19:35;13.80;99.90
7155;DHT22;3619;53.784;10.440;2023-03-22T12:22:10;13.80;99.90
7155;DHT22;3619;53.784;10.440;2023-03-22T12:24:37;13.90;99.90
7155;DHT22;3619;53.784;10.440;2023-03-22T12:27:14;13.90;99.90
7155;DHT22;3619;53.784;10.440;2023-03-22T12:29:53;13.90;99.90
7155;DHT22;3619;53.784;10.440;2023-03-22T12:32:27;13.80;99.90
7155;DHT22;3619;53.784;10.440;2023-03-22T12:34:55;13.90;99.90
7155;DHT22;3619;53.784;10.440;2023-03-22T12:37:26;13.90;99.90
7155;DHT22;3619;53.784;10.440;2023-03-22T12:39:57;13.80;99.90
7155;DHT22;3619;53.784;10.440;2023-03-22T12:42:30;13.80;99.90
7155;DHT22;3619;53.784;10.440;2023-03-22T12:45:05;13.90;99.90
7155;DHT22;3619;53.784;10.440;2023-03-22T12:47:44;13.70;99.90
7155;DHT22;3619;53.784;10.440;2023-03-22T12:50:15;13.80;99.90
7155;DHT22;3619;53.784;10.440;2023-03-22T12:52:45;13.90;99.90
7155;DHT22;3619;53.784;10.440;2023-03-22T12:55:23;13.80;99.90
7155;DHT22;3619;53.784;10.440;2023-03-22T12:57:55;13.70;99.90
7155;DHT22;3619;53.784;10.440;2023-03-22T13:00:33;13.60;99.90
7155;DHT22;3619;53.784;10.440;2023-03-22T13:03:06;13.60;99.90
7155;DHT22;3619;53.784;10.440;2023-03-22T13:05:44;13.60;99.90
7155;DHT22;3619;53.784;10.440;2023-03-22T13:08:18;13.50;99.90
7155;DHT22;3619;53.784;10.440;2023-03-22T13:11:00;13.50;99.90
7155;DHT22;3619;53.784;10.440;2023-03-22T13:13:48;13.40;99.90
7155;DHT22;3619;53.784;10.440;2023-03-22T13:16:24;13.40;99.90
7155;DHT22;3619;53.784;10.440;2023-03-22T13:19:33;13.30;99.90
7155;DHT22;3619;53.784;10.440;2023-03-22T13:22:24;13.20;99.90
7155;DHT22;3619;53.784;10.440;2023-03-22T13:25:26;13.20;99.90
7155;DHT22;3619;53.784;10.440;2023-03-22T13:27:58;13.00;99.90
7155;DHT22;3619;53.784;10.440;2023-03-22T13:30:32;12.90;99.90
7155;DHT22;3619;53.784;10.440;2023-03-22T13:33:11;12.80;99.90
7155;DHT22;3619;53.784;10.440;2023-03-22T13:35:45;12.60;99.90
7155;DHT22;3619;53.784;10.440;2023-03-22T13:38:19;12.50;99.90
7155;DHT22;3619;53.784;10.440;2023-03-22T13:40:52;12.40;99.90
7155;DHT22;3619;53.784;10.440;2023-03-22T13:43:24;12.40;99.90
7155;DHT22;3619;53.784;10.440;2023-03-22T13:46:27;12.30;99.90
7155;DHT22;3619;53.784;10.440;2023-03-22T13:51:57;12.20;99.90
7155;DHT22;3619;53.784;10.440;2023-03-22T13:54:26;12.10;99.90
7155;DHT22;3619;53.784;10.440;2023-03-22T13:56:58;12.10;99.90
7155;DHT22;3619;53.784;10.440;2023-03-22T13:59:29;12.10;99.90
7155;DHT22;3619;53.784;10.440;2023-03-22T14:02:01;12.10;99.90
7155;DHT22;3619;53.784;10.440;2023-03-22T14:04:35;12.00;99.90
7155;DHT22;3619;53.784;10.440;2023-03-22T14:07:11;12.00;99.90
7155;DHT22;3619;53.784;10.440;2023-03-22T14:09:49;12.00;99.90
7155;DHT22;3619;53.784;10.440;2023-03-22T14:12:23;12.00;99.90
7155;DHT22;3619;53.784;10.440;2023-03-22T14:14:54;12.00;99.90
7155;DHT22;3619;53.784;10.440;2023-03-22T14:17:30;12.00;99.90
7155;DHT22;3619;53.784;10.440;2023-03-22T14:20:03;12.00;99.90
7155;DHT22;3619;53.784;10.440;2023-03-22T14:22:39;12.00;99.90
7155;DHT22;3619;53.784;10.440;2023-03-22T14:25:24;12.00;99.90
7155;DHT22;3619;53.784;10.440;2023-03-22T14:28:17;12.00;99.90
7155;DHT22;3619;53.784;10.440;2023-03-22T14:30:47;12.00;99.90
7155;DHT22;3619;53.784;10.440;2023-03-22T14:33:34;12.00;99.90
7155;DHT22;3619;53.784;10.440;2023-03-22T14:36:18;12.10;99.90
7155;DHT22;3619;53.784;10.440;2023-03-22T14:38:49;12.10;99.90
7155;DHT22;3619;53.784;10.440;2023-03-22T14:41:19;12.10;99.90
7155;DHT22;3619;53.784;10.440;2023-03-22T14:43:54;12.00;99.90
7155;DHT22;3619;53.784;10.440;2023-03-22T14:46:31;12.00;99.90
7155;DHT22;3619;53.784;10.440;2023-03-22T14:49:01;12.00;99.90
7155;DHT22;3619;53.784;10.440;2023-03-22T14:51:33;12.00;99.90
7155;DHT22;3619;53.784;10.440;2023-03-22T14:54:06;12.00;99.90
7155;DHT22;3619;53.784;10.440;2023-03-22T14:56:38;12.00;99.90
7155;DHT22;3619;53.784;10.440;2023-03-22T14:59:06;12.10;99.90
7155;DHT22;3619;53.784;10.440;2023-03-22T15:01:37;12.20;99.90
7155;DHT22;3619;53.784;10.440;2023-03-22T15:04:13;12.20;99.90
7155;DHT22;3619;53.784;10.440;2023-03-22T15:06:43;12.20;99.90
7155;DHT22;3619;53.784;10.440;2023-03-22T15:09:13;12.10;99.90
7155;DHT22;3619;53.784;10.440;2023-03-22T15:11:42;12.10;99.90
7155;DHT22;3619;53.784;10.440;2023-03-22T15:14:09;12.10;99.90
7155;DHT22;3619;53.784;10.440;2023-03-22T15:16:38;12.10;99.90
7155;DHT22;3619;53.784;10.440;2023-03-22T15:19:08;12.00;99.90
7155;DHT22;3619;53.784;10.440;2023-03-22T15:21:38;12.00;99.90
7155;DHT22;3619;53.784;10.440;2023-03-22T15:24:19;12.00;99.90
7155;DHT22;3619;53.784;10.440;2023-03-22T15:26:49;11.90;99.90
7155;DHT22;3619;53.784;10.440;2023-03-22T15:29:21;11.90;99.90
7155;DHT22;3619;53.784;10.440;2023-03-22T15:31:48;11.90;99.90
7155;DHT22;3619;53.784;10.440;2023-03-22T15:34:18;11.90;99.90
7155;DHT22;3619;53.784;10.440;2023-03-22T15:36:46;11.90;99.90
7155;DHT22;3619;53.784;10.440;2023-03-22T15:39:21;11.90;99.90
7155;DHT22;3619;53.784;10.440;2023-03-22T15:41:51;11.90;99.90
7155;DHT22;3619;53.784;10.440;2023-03-22T15:44:26;11.90;99.90
7155;DHT22;3619;53.784;10.440;2023-03-22T15:46:55;11.90;99.90
7155;DHT22;3619;53.784;10.440;2023-03-22T15:49:43;11.90;99.90
7155;DHT22;3619;53.784;10.440;2023-03-22T15:52:14;11.90;99.90
7155;DHT22;3619;53.784;10.440;2023-03-22T15:54:46;11.90;99.90
7155;DHT22;3619;53.784;10.440;2023-03-22T15:57:18;11.90;99.90
7155;DHT22;3619;53.784;10.440;2023-03-22T15:59:53;11.80;99.90
7155;DHT22;3619;53.784;10.440;2023-03-22T16:02:29;11.90;99.90
7155;DHT22;3619;53.784;10.440;2023-03-22T16:04:57;11.90;99.90
7155;DHT22;3619;53.784;10.440;2023-03-22T16:07:27;11.90;99.90
7155;DHT22;3619;53.784;10.440;2023-03-22T16:09:59;11.90;99.90
7155;DHT22;3619;53.784;10.440;2023-03-22T16:12:26;11.90;99.90
7155;DHT22;3619;53.784;10.440;2023-03-22T16:14:53;11.90;99.90
7155;DHT22;3619;53.784;10.440;2023-03-22T16:17:22;11.90;99.90
7155;DHT22;3619;53.784;10.440;2023-03-22T16:19:49;11.90;99.90
7155;DHT22;3619;53.784;10.440;2023-03-22T16:22:18;11.90;99.90
7155;DHT22;3619;53.784;10.440;2023-03-22T16:24:46;11.90;99.90
7155;DHT22;3619;53.784;10.440;2023-03-22T16:27:18;11.90;99.90